createdAt,value
2023-01-03T00:02:26.289Z,86.77
2023-01-03T00:05:15.089Z,86.82
2023-01-03T00:07:57.290Z,86.81
2023-01-03T00:10:46.040Z,86.30
2023-01-03T00:13:28.239Z,86.23
2023-01-03T00:16:28.071Z,86.43
2023-01-03T00:19:17.342Z,86.79
2023-01-03T00:22:06.007Z,86.49
2023-01-03T00:24:48.274Z,86.63
2023-01-03T00:27:37.006Z,86.33
2023-01-03T00:30:19.214Z,86.64
2023-01-03T00:33:07.917Z,85.71
2023-01-03T00:35:56.943Z,86.08
2023-01-03T00:38:46.965Z,86.14
2023-01-03T00:41:29.382Z,86.70
2023-01-03T00:44:17.981Z,86.67
2023-01-03T00:47:00.821Z,86.25
2023-01-03T00:49:49.978Z,87.14
2023-01-03T00:52:45.952Z,86.40
2023-01-03T00:55:34.986Z,86.74
2023-01-03T00:58:23.953Z,86.65
2023-01-03T01:01:08.390Z,86.78
2023-01-03T01:04:00.111Z,86.99
2023-01-03T01:06:45.060Z,87.37
2023-01-03T01:09:41.887Z,87.17
2023-01-03T01:12:24.271Z,87.48
2023-01-03T01:15:12.862Z,86.90
2023-01-03T01:18:01.895Z,87.30
2023-01-03T01:20:55.017Z,87.10
2023-01-03T01:23:38.840Z,86.97
2023-01-03T01:26:33.076Z,86.58
2023-01-03T01:29:16.515Z,87.70
2023-01-03T01:32:04.968Z,87.28
2023-01-03T01:34:53.195Z,87.98
2023-01-03T01:37:35.932Z,87.02
2023-01-03T01:40:32.977Z,87.90
2023-01-03T01:43:48.422Z,88.09
2023-01-03T01:46:40.982Z,87.78
2023-01-03T01:49:33.994Z,88.34
2023-01-03T01:52:25.292Z,88.03
2023-01-03T01:55:12.064Z,87.87
2023-01-03T01:57:55.394Z,87.97
2023-01-03T02:00:43.866Z,87.67
2023-01-03T02:03:32.292Z,87.85
2023-01-03T02:06:17.926Z,88.30
2023-01-03T02:09:00.256Z,87.90
2023-01-03T02:12:39.964Z,87.58
2023-01-03T02:15:59.157Z,88.27
2023-01-03T02:19:07.922Z,88.20
2023-01-03T02:22:23.875Z,87.50
2023-01-03T02:25:41.005Z,87.36
2023-01-03T02:29:07.925Z,88.05
2023-01-03T02:32:05.913Z,87.64
2023-01-03T02:35:13.069Z,87.72
2023-01-03T02:38:22.272Z,88.29
2023-01-03T02:41:43.839Z,88.35
2023-01-03T02:44:44.445Z,88.50
2023-01-03T02:47:36.857Z,87.81
2023-01-03T02:50:21.244Z,88.26
2023-01-03T02:53:13.796Z,87.70
2023-01-03T02:56:06.933Z,88.64
2023-01-03T02:59:00.936Z,88.01
2023-01-03T03:01:53.144Z,88.26
2023-01-03T03:04:45.959Z,88.71
2023-01-03T03:07:49.238Z,88.59
2023-01-03T03:11:17.877Z,88.41
2023-01-03T03:14:37.796Z,88.58
2023-01-03T03:17:36.861Z,88.39
2023-01-03T03:20:42.613Z,88.17
2023-01-03T03:23:56.910Z,87.82
2023-01-03T03:26:45.214Z,86.08
2023-01-03T03:29:35.965Z,86.59
2023-01-03T03:32:18.287Z,86.45
2023-01-03T03:35:09.955Z,87.03
2023-01-03T03:37:55.241Z,86.27
2023-01-03T03:41:16.959Z,87.00
2023-01-03T03:44:29.707Z,87.14
2023-01-03T03:47:39.954Z,86.82
2023-01-03T03:50:49.418Z,86.52
2023-01-03T03:53:43.988Z,86.11
2023-01-03T03:56:32.830Z,86.38
2023-01-03T03:59:27.005Z,86.92
2023-01-03T04:02:13.830Z,86.51
2023-01-03T04:05:06.836Z,86.24
2023-01-03T04:07:49.287Z,86.49
2023-01-03T04:10:38.924Z,87.15
2023-01-03T04:13:21.304Z,86.94
2023-01-03T04:16:10.943Z,86.75
2023-01-03T04:18:59.968Z,87.19
2023-01-03T04:21:42.375Z,86.67
2023-01-03T04:24:30.849Z,86.49
2023-01-03T04:27:19.187Z,86.60
2023-01-03T04:30:00.983Z,86.33
2023-01-03T04:32:43.163Z,85.87
2023-01-03T04:35:31.842Z,85.87
2023-01-03T04:38:14.211Z,85.71
2023-01-03T04:41:02.975Z,85.34
2023-01-03T04:44:05.523Z,85.39
2023-01-03T04:46:52.773Z,86.28
2023-01-03T04:49:41.830Z,85.65
2023-01-03T04:52:36.932Z,85.93
2023-01-03T04:55:19.208Z,85.84
2023-01-03T04:58:08.956Z,85.33
2023-01-03T05:00:57.875Z,84.53
2023-01-03T05:03:46.864Z,85.52
2023-01-03T05:06:29.616Z,85.62
2023-01-03T05:09:18.910Z,85.11
2023-01-03T05:12:08.824Z,85.71
2023-01-03T05:14:51.252Z,84.85
2023-01-03T05:17:39.899Z,84.52
2023-01-03T05:20:40.634Z,84.07
2023-01-03T05:23:48.899Z,84.96
2023-01-03T05:26:37.976Z,84.44
2023-01-03T05:29:22.863Z,84.19
2023-01-03T05:32:12.003Z,84.21
2023-01-03T05:35:00.936Z,85.28
2023-01-03T05:37:43.246Z,85.30
2023-01-03T05:40:37.651Z,85.65
2023-01-03T05:43:23.311Z,85.70
2023-01-03T05:46:11.893Z,86.43
2023-01-03T05:48:54.187Z,86.03
2023-01-03T05:51:49.911Z,85.11
2023-01-03T05:54:38.171Z,85.33
2023-01-03T05:57:20.784Z,85.29
2023-01-03T06:00:09.952Z,85.66
2023-01-03T06:02:52.294Z,84.43
2023-01-03T06:05:47.848Z,84.67
2023-01-03T06:08:32.242Z,83.68
2023-01-03T06:11:23.933Z,82.51
2023-01-03T06:14:06.349Z,83.10
2023-01-03T06:17:13.086Z,81.88
2023-01-03T06:19:55.154Z,82.12
2023-01-03T06:22:43.856Z,82.39
2023-01-03T06:25:26.225Z,82.44
2023-01-03T06:28:14.901Z,82.75
2023-01-03T06:30:57.297Z,81.73
2023-01-03T06:33:46.911Z,81.92
2023-01-03T06:36:33.150Z,82.45
2023-01-03T06:39:21.921Z,82.41
2023-01-03T06:42:24.923Z,81.87
2023-01-03T06:45:32.908Z,81.49
2023-01-03T06:48:35.485Z,80.19
2023-01-03T06:51:52.906Z,78.01
2023-01-03T06:54:44.169Z,77.46
2023-01-03T06:57:27.197Z,78.17
2023-01-03T07:00:16.517Z,77.64
2023-01-03T07:02:58.915Z,78.06
2023-01-03T07:05:41.212Z,75.44
2023-01-03T07:08:29.839Z,75.99
2023-01-03T07:11:18.175Z,76.37
2023-01-03T07:14:06.885Z,74.75
2023-01-03T07:16:50.267Z,74.18
2023-01-03T07:19:38.843Z,74.80
2023-01-03T07:22:21.087Z,74.23
2023-01-03T07:25:10.019Z,74.10
2023-01-03T07:28:08.141Z,73.51
2023-01-03T07:30:53.993Z,73.89
2023-01-03T07:33:43.272Z,73.29
2023-01-03T07:36:25.925Z,73.09
2023-01-03T07:39:14.803Z,72.77
2023-01-03T07:42:22.758Z,73.08
2023-01-03T07:45:12.165Z,72.88
2023-01-03T07:47:54.955Z,73.12
2023-01-03T07:50:44.887Z,72.92
2023-01-03T07:53:34.256Z,71.99
2023-01-03T07:56:28.835Z,72.40
2023-01-03T07:59:17.799Z,72.66
2023-01-03T08:02:06.984Z,72.41
2023-01-03T08:04:56.861Z,71.76
2023-01-03T08:07:45.890Z,71.74
2023-01-03T08:10:46.272Z,72.01
2023-01-03T08:13:35.156Z,71.22
2023-01-03T08:16:25.977Z,71.37
2023-01-03T08:19:08.203Z,70.65
2023-01-03T08:21:56.846Z,71.35
2023-01-03T08:24:39.132Z,71.17
2023-01-03T08:27:27.787Z,70.38
2023-01-03T08:30:16.831Z,70.03
2023-01-03T08:33:09.888Z,69.30
2023-01-03T08:36:15.358Z,68.18
2023-01-03T08:39:10.884Z,68.26
2023-01-03T08:42:02.195Z,66.94
2023-01-03T08:44:52.871Z,66.68
2023-01-03T08:47:37.151Z,67.84
2023-01-03T08:50:25.909Z,67.53
2023-01-03T08:53:14.233Z,68.80
2023-01-03T08:55:55.841Z,68.52
2023-01-03T08:58:44.920Z,68.26
2023-01-03T09:01:33.990Z,68.02
2023-01-03T09:04:22.908Z,68.49
2023-01-03T09:07:11.848Z,67.99
2023-01-03T09:10:00.942Z,67.59
2023-01-03T09:12:49.731Z,67.78
2023-01-03T09:15:38.970Z,67.76
2023-01-03T09:18:21.113Z,67.63
2023-01-03T09:21:12.938Z,67.39
2023-01-03T09:23:55.191Z,68.44
2023-01-03T09:26:45.945Z,68.76
2023-01-03T09:29:31.117Z,68.04
2023-01-03T09:32:19.934Z,68.71
2023-01-03T09:35:02.191Z,67.35
2023-01-03T09:37:50.756Z,67.82
2023-01-03T09:40:40.768Z,68.19
2023-01-03T09:43:32.149Z,68.51
2023-01-03T09:46:14.931Z,67.98
2023-01-03T09:49:21.977Z,68.72
2023-01-03T09:52:34.766Z,68.69
2023-01-03T09:55:58.798Z,68.92
2023-01-03T09:58:59.737Z,69.10
2023-01-03T10:02:13.948Z,69.14
2023-01-03T10:04:59.145Z,68.48
2023-01-03T10:08:08.857Z,69.54
2023-01-03T10:11:08.310Z,69.77
2023-01-03T10:14:24.875Z,69.37
2023-01-03T10:17:25.842Z,69.32
2023-01-03T10:20:38.873Z,70.24
2023-01-03T10:23:21.296Z,69.51
2023-01-03T10:26:13.895Z,70.18
2023-01-03T10:28:56.213Z,69.85
2023-01-03T10:31:57.888Z,69.37
2023-01-03T10:34:40.196Z,70.25
2023-01-03T10:37:28.865Z,69.64
2023-01-03T10:40:13.169Z,69.99
2023-01-03T10:43:02.830Z,69.03
2023-01-03T10:46:03.172Z,69.78
2023-01-03T10:49:26.147Z,69.69
2023-01-03T10:52:08.875Z,70.69
2023-01-03T10:54:55.862Z,70.30
2023-01-03T10:58:06.797Z,70.70
2023-01-03T11:00:49.492Z,71.44
2023-01-03T11:03:43.989Z,70.98
2023-01-03T11:06:34.901Z,69.46
2023-01-03T11:09:19.130Z,69.14
2023-01-03T11:12:25.718Z,70.03
2023-01-03T11:15:15.826Z,71.15
2023-01-03T11:18:05.873Z,72.25
2023-01-03T11:20:52.059Z,72.82
2023-01-03T11:23:48.852Z,73.12
2023-01-03T11:26:58.849Z,73.98
2023-01-03T11:30:09.772Z,74.46
2023-01-03T11:33:15.832Z,74.37
2023-01-03T11:36:22.895Z,74.34
2023-01-03T11:39:53.751Z,75.01
2023-01-03T11:43:05.851Z,76.21
2023-01-03T11:46:20.856Z,76.28
2023-01-03T11:49:15.729Z,76.31
2023-01-03T11:52:22.773Z,75.70
2023-01-03T11:55:41.821Z,73.48
2023-01-03T11:58:43.089Z,73.69
2023-01-03T12:01:54.892Z,74.06
2023-01-03T12:05:16.130Z,74.71
2023-01-03T12:08:59.711Z,75.17
2023-01-03T12:12:38.895Z,75.91
2023-01-03T12:15:33.162Z,75.93
2023-01-03T12:18:44.972Z,77.08
2023-01-03T12:21:46.213Z,77.30
2023-01-03T12:24:43.787Z,78.26
2023-01-03T12:27:42.770Z,79.11
2023-01-03T12:30:43.196Z,79.08
2023-01-03T12:33:38.808Z,79.33
2023-01-03T12:36:43.939Z,79.14
2023-01-03T12:40:01.143Z,80.20
2023-01-03T12:42:54.881Z,79.98
2023-01-03T12:45:43.130Z,81.15
2023-01-03T12:48:47.842Z,81.00
2023-01-03T12:51:43.725Z,81.58
2023-01-03T12:54:37.893Z,82.54
2023-01-03T12:57:43.462Z,83.30
2023-01-03T13:01:01.784Z,83.29
2023-01-03T13:03:59.137Z,84.95
2023-01-03T13:06:54.846Z,84.30
2023-01-03T13:09:49.061Z,84.58
2023-01-03T13:12:38.775Z,83.95
2023-01-03T13:15:44.895Z,84.23
2023-01-03T13:18:26.969Z,83.94
2023-01-03T13:21:17.231Z,83.79
2023-01-03T13:24:08.264Z,83.97
2023-01-03T13:27:25.833Z,84.09
2023-01-03T13:30:33.469Z,84.52
2023-01-03T13:33:18.946Z,84.44
2023-01-03T13:36:10.659Z,83.73
2023-01-03T13:38:53.899Z,82.67
2023-01-03T13:41:41.017Z,84.28
2023-01-03T13:44:38.714Z,84.56
2023-01-03T13:47:52.865Z,85.25
2023-01-03T13:50:40.100Z,84.05
2023-01-03T13:53:28.893Z,83.57
2023-01-03T13:56:23.251Z,83.96
2023-01-03T13:59:51.850Z,84.22
2023-01-03T14:03:30.360Z,83.35
2023-01-03T14:06:44.863Z,84.02
2023-01-03T14:09:57.690Z,83.65
2023-01-03T14:13:04.852Z,83.77
2023-01-03T14:15:53.880Z,83.70
2023-01-03T14:18:44.212Z,84.54
2023-01-03T14:21:32.836Z,85.35
2023-01-03T14:24:35.683Z,85.86
2023-01-03T14:27:29.934Z,86.36
2023-01-03T14:30:38.467Z,85.55
2023-01-03T14:33:29.783Z,85.25
2023-01-03T14:36:23.726Z,86.02
2023-01-03T14:39:14.815Z,86.34
2023-01-03T14:42:04.275Z,85.93
2023-01-03T14:44:46.924Z,86.23
2023-01-03T14:47:48.131Z,85.80
2023-01-03T14:50:36.817Z,86.19
2023-01-03T14:53:32.869Z,85.36
2023-01-03T14:56:22.118Z,85.67
2023-01-03T14:59:04.725Z,85.20
2023-01-03T15:01:48.280Z,85.69
2023-01-03T15:04:39.681Z,85.63
2023-01-03T15:07:50.826Z,86.17
2023-01-03T15:10:42.169Z,85.64
2023-01-03T15:13:37.910Z,85.93
2023-01-03T15:16:39.147Z,85.37
2023-01-03T15:19:36.835Z,85.55
2023-01-03T15:22:47.327Z,84.82
2023-01-03T15:25:45.812Z,84.48
2023-01-03T15:28:58.094Z,84.43
2023-01-03T15:31:55.985Z,84.02
2023-01-03T15:34:39.202Z,84.97
2023-01-03T15:37:31.784Z,84.58
2023-01-03T15:40:15.186Z,85.24
2023-01-03T15:43:21.959Z,84.75
2023-01-03T15:46:25.653Z,85.28
2023-01-03T15:49:14.726Z,85.22
2023-01-03T15:51:58.222Z,85.14
2023-01-03T15:54:46.845Z,86.13
2023-01-03T15:57:37.099Z,84.17
2023-01-03T16:00:31.718Z,84.13
2023-01-03T16:03:20.784Z,83.92
2023-01-03T16:06:03.902Z,84.70
2023-01-03T16:08:54.730Z,84.17
2023-01-03T16:11:37.124Z,84.12
2023-01-03T16:14:34.714Z,84.26
2023-01-03T16:17:33.021Z,84.77
2023-01-03T16:20:21.235Z,84.28
2023-01-03T16:23:09.812Z,84.02
2023-01-03T16:25:52.169Z,84.31
2023-01-03T16:28:40.763Z,83.71
2023-01-03T16:31:31.687Z,84.38
2023-01-03T16:34:33.436Z,84.14
2023-01-03T16:37:18.327Z,83.75
2023-01-03T16:40:07.651Z,82.21
2023-01-03T16:42:56.869Z,82.57
2023-01-03T16:45:47.636Z,83.26
2023-01-03T16:48:32.862Z,82.29
2023-01-03T16:51:34.175Z,80.94
2023-01-03T16:54:23.809Z,80.84
2023-01-03T16:57:12.679Z,82.04
2023-01-03T16:59:55.021Z,81.03
2023-01-03T17:02:43.909Z,80.60
2023-01-03T17:05:27.786Z,80.98
2023-01-03T17:08:26.790Z,80.44
2023-01-03T17:11:16.954Z,79.98
2023-01-03T17:14:03.229Z,80.09
2023-01-03T17:16:51.908Z,79.69
2023-01-03T17:22:43.786Z,81.95
2023-01-03T17:25:26.739Z,81.79
2023-01-03T17:28:18.739Z,82.56
2023-01-03T17:31:07.916Z,82.33
2023-01-03T17:33:56.940Z,82.87
2023-01-03T17:36:41.599Z,82.40
2023-01-03T17:39:31.710Z,82.79
2023-01-03T17:42:23.232Z,81.91
2023-01-03T17:45:30.918Z,81.95
2023-01-03T17:48:31.420Z,82.29
2023-01-03T17:51:20.813Z,82.62
2023-01-03T17:54:16.770Z,82.86
2023-01-03T17:57:07.798Z,82.87
2023-01-03T17:59:50.443Z,82.82
2023-01-03T18:02:41.217Z,82.68
2023-01-03T18:05:27.959Z,83.64
2023-01-03T18:08:26.706Z,83.45
2023-01-03T18:11:09.372Z,84.27
2023-01-03T18:13:57.692Z,84.03
2023-01-03T18:16:40.332Z,82.83
2023-01-03T18:19:29.759Z,83.00
2023-01-03T18:22:12.290Z,83.49
2023-01-03T18:25:01.915Z,82.74
2023-01-03T18:27:44.349Z,83.54
2023-01-03T18:30:32.664Z,83.93
2023-01-03T18:33:15.158Z,84.55
2023-01-03T18:36:03.819Z,84.28
2023-01-03T18:38:45.997Z,84.94
2023-01-03T18:41:37.645Z,84.96
2023-01-03T18:44:32.245Z,84.72
2023-01-03T18:47:21.847Z,84.19
2023-01-03T18:50:04.105Z,84.54
2023-01-03T18:53:00.869Z,85.52
2023-01-03T18:55:50.105Z,85.29
2023-01-03T18:58:40.753Z,85.68
2023-01-03T19:01:30.237Z,85.36
2023-01-03T19:04:12.702Z,84.39
2023-01-03T19:06:55.072Z,83.46
2023-01-03T19:09:44.682Z,82.90
2023-01-03T19:12:34.038Z,84.32
2023-01-03T19:15:37.851Z,84.52
2023-01-03T19:18:25.830Z,84.19
2023-01-03T19:21:08.139Z,84.57
2023-01-03T19:24:07.759Z,82.78
2023-01-03T19:26:55.077Z,83.11
2023-01-03T19:29:45.825Z,82.58
2023-01-03T19:32:35.270Z,84.04
2023-01-03T19:35:24.751Z,84.15
2023-01-03T19:38:07.047Z,84.13
2023-01-03T19:40:55.715Z,84.02
2023-01-03T19:43:44.754Z,85.12
2023-01-03T19:46:27.089Z,85.07
2023-01-03T19:49:15.733Z,85.07
2023-01-03T19:52:00.648Z,84.74
2023-01-03T19:54:49.761Z,85.35
2023-01-03T19:57:41.762Z,85.22
2023-01-03T20:00:44.778Z,84.98
2023-01-03T20:03:42.857Z,84.99
2023-01-03T20:06:32.750Z,85.42
2023-01-03T20:09:21.620Z,85.44
2023-01-03T20:12:10.741Z,85.38
2023-01-03T20:15:07.228Z,85.47
2023-01-03T20:17:50.052Z,85.01
2023-01-03T20:20:40.796Z,85.16
2023-01-03T20:23:25.608Z,85.08
2023-01-03T20:26:18.706Z,85.14
2023-01-03T20:29:03.211Z,85.21
2023-01-03T20:31:51.759Z,85.22
2023-01-03T20:34:34.113Z,85.32
2023-01-03T20:37:28.865Z,85.44
2023-01-03T20:40:11.136Z,85.40
2023-01-03T20:43:01.014Z,85.07
2023-01-03T20:45:44.224Z,84.78
2023-01-03T20:48:32.766Z,85.81
2023-01-03T20:51:18.127Z,84.92
2023-01-03T20:54:07.727Z,84.00
2023-01-03T20:56:50.111Z,84.75
2023-01-03T20:59:39.645Z,84.13
2023-01-03T21:02:22.333Z,84.15
2023-01-03T21:05:12.684Z,84.71
2023-01-03T21:08:14.610Z,84.61
2023-01-03T21:11:03.700Z,85.44
2023-01-03T21:13:52.787Z,85.17
2023-01-03T21:16:42.381Z,84.99
2023-01-03T21:19:32.617Z,85.03
2023-01-03T21:22:27.788Z,84.61
2023-01-03T21:25:16.719Z,84.34
2023-01-03T21:28:05.013Z,84.63
2023-01-03T21:30:47.865Z,84.47
2023-01-03T21:33:36.129Z,85.01
2023-01-03T21:36:23.279Z,84.62
2023-01-03T21:39:12.653Z,85.33
2023-01-03T21:42:19.761Z,84.99
2023-01-03T21:45:08.984Z,85.45
2023-01-03T21:47:51.788Z,85.16
2023-01-03T21:50:37.308Z,84.59
2023-01-03T21:53:36.751Z,84.93
2023-01-03T21:56:31.083Z,85.44
2023-01-03T21:59:13.744Z,85.49
2023-01-03T22:02:20.346Z,85.96
2023-01-03T22:05:02.636Z,86.10
2023-01-03T22:07:51.777Z,85.73
2023-01-03T22:10:41.665Z,85.47
2023-01-03T22:13:29.977Z,85.15
2023-01-03T22:16:14.738Z,85.21
2023-01-03T22:19:02.981Z,85.06
2023-01-03T22:21:45.798Z,85.63
2023-01-03T22:24:33.968Z,85.05
2023-01-03T22:27:15.807Z,85.88
2023-01-03T22:29:58.023Z,85.72
2023-01-03T22:32:46.615Z,85.32
2023-01-03T22:35:35.600Z,84.70
2023-01-03T22:38:19.331Z,84.33
2023-01-03T22:41:10.712Z,84.48
2023-01-03T22:43:53.985Z,84.63
2023-01-03T22:46:42.785Z,84.54
2023-01-03T22:49:25.039Z,84.38
2023-01-03T22:52:13.944Z,84.85
2023-01-03T22:55:09.620Z,83.80
2023-01-03T22:57:58.749Z,83.01
2023-01-03T23:00:41.071Z,83.30
2023-01-03T23:03:29.711Z,83.43
2023-01-03T23:06:16.936Z,83.14
2023-01-03T23:09:05.644Z,82.77
2023-01-03T23:12:13.780Z,82.83
2023-01-03T23:15:02.151Z,81.96
2023-01-03T23:18:02.696Z,82.35
2023-01-03T23:20:51.989Z,81.45
2023-01-03T23:23:34.688Z,80.66
2023-01-03T23:26:23.647Z,81.08
2023-01-03T23:29:07.928Z,80.88
2023-01-03T23:31:56.753Z,80.99
2023-01-03T23:34:45.741Z,82.00
2023-01-03T23:37:29.404Z,81.86
2023-01-03T23:40:18.714Z,81.61
2023-01-03T23:43:00.883Z,81.14
2023-01-03T23:45:50.802Z,81.63
2023-01-03T23:48:33.378Z,80.48
2023-01-03T23:51:24.767Z,81.03
2023-01-03T23:54:12.966Z,81.53
2023-01-03T23:56:55.562Z,81.20
2023-01-03T23:59:44.601Z,81.30
